Paul Gauguin — C6TH9 — position and weather

sailwx.info

Track history (hours):
 
Tides and Currents Weather Stations Pressure Air Temp Water Temp Dewpoint Dewpoint Depression Visibility Wind Speed Wind Dir Waves Ship Positions

Paul Gauguin

Last reported at 2014-Jul-09 05:21 UTC. Time now 2014-Jul-24 23:03 UTC.
Position N 01°12' E 103°49'.
Warning: this ship's position is 15 days out of date.

Length 153 m; draft 5.3 m.

Type: Ship. MMSI: 311652000.

Date/timePositionNaut miles runAvg speedWind from/ knotsBaromVisibWave heightAir tempDewpointWater temp
2014-Jul-09 05:21N 01°12' E 103°49'4 4.4
2014-Jul-09 04:33N 01°16' E 103°48'1 0.8
2014-Jul-09 03:27N 01°16' E 103°49'0 0.0
2014-Jul-09 02:33N 01°16' E 103°49'0 0.0
2014-Jul-09 01:33N 01°16' E 103°49'0 0.0
2014-Jul-09 00:33N 01°16' E 103°49'2 1.6
2014-Jul-08 23:33N 01°15' E 103°48'2 2.1
2014-Jul-08 22:33N 01°13' E 103°48'  
2014-Jul-04 10:33S 08°45' E 115°16'3 2.4
2014-Jul-04 09:22S 08°45' E 115°13'0 0.0
2014-Jul-04 08:25S 08°45' E 115°13'0 0.0
2014-Jul-04 07:25S 08°45' E 115°13'0 0.0
2014-Jul-04 06:25S 08°45' E 115°13'0 0.0
2014-Jul-04 05:28S 08°45' E 115°13'0 0.0
2014-Jul-04 04:25S 08°45' E 115°13'0 0.0
2014-Jul-04 03:28S 08°45' E 115°13'0 0.0
2014-Jul-04 02:28S 08°45' E 115°13'3 5.7
2014-Jul-04 02:00S 08°42' E 115°12'3 5.7 130 / 181016.010.8 27.0
2014-Jul-04 01:31S 08°45' E 115°13'0 0.0
2014-Jul-04 00:31S 08°45' E 115°13'2 1.6
2014-Jul-03 23:33S 08°45' E 115°14'1010.0
2014-Jul-03 22:33S 08°49' E 115°23'24512.5
2014-Jul-03 03:00S 08°30' E 119°30'   230 / 71016.010.8 27.0
2014-Jun-30 11:33S 12°15' E 130°17'1313.1
2014-Jun-30 10:33S 12°17' E 130°31'1212.0
2014-Jun-30 09:33S 12°20' E 130°43'1110.9
2014-Jun-30 08:33S 12°28' E 130°50'1 0.9
2014-Jun-30 07:31S 12°28' E 130°51'0 0.0
2014-Jun-30 06:31S 12°28' E 130°51'0 0.0
2014-Jun-30 05:19S 12°28' E 130°51'0 0.0
2014-Jun-30 04:31S 12°28' E 130°51'0 0.0
2014-Jun-30 03:31S 12°28' E 130°51'0 0.0
2014-Jun-30 02:19S 12°28' E 130°51'515.6
2014-Jun-30 02:00S 12°24' E 130°48'5 8.9 130 / 181018.010.8 24.0
2014-Jun-30 01:25S 12°28' E 130°51'0 0.0
2014-Jun-30 00:25S 12°28' E 130°51'0 0.0
2014-Jun-29 23:25S 12°28' E 130°51'0 0.0
2014-Jun-29 22:29S 12°28' E 130°51'6 6.1
2014-Jun-29 21:33S 12°25' E 130°46'1010.1
2014-Jun-29 20:33S 12°15' E 130°45'9 9.3
2014-Jun-29 19:33S 12°08' E 130°52'9 8.5
2014-Jun-29 18:32S 12°04' E 130°59'9 9.5
2014-Jun-29 17:33S 12°05' E 131°09'11 9.8
2014-Jun-29 16:26S 11°58' E 131°17'910.1
2014-Jun-29 15:31S 11°52' E 131°24'9 9.8
2014-Jun-29 14:33S 11°50' E 131°33'24 7.9
2014-Jun-29 11:33S 11°27' E 131°40'  
Track history (hours):
 
Tides and Currents Weather Stations Pressure Air Temp Water Temp Dewpoint Dewpoint Depression Visibility Wind Speed Wind Dir Waves Ship Positions

Paul Gauguin

Last reported at 2014-Jul-09 05:21 UTC. Time now 2014-Jul-24 23:03 UTC.
Position N 01°12' E 103°49'.
Warning: this ship's position is 15 days out of date.

Length 153 m; draft 5.3 m.

Type: Ship. MMSI: 311652000.

Date/timePositionNaut miles runAvg speedWind from/ knotsBaromVisibWave heightAir tempDewpointWater temp
2014-Jul-09 05:21N 01°12' E 103°49'4 4.4
2014-Jul-09 04:33N 01°16' E 103°48'1 0.8
2014-Jul-09 03:27N 01°16' E 103°49'0 0.0
2014-Jul-09 02:33N 01°16' E 103°49'0 0.0
2014-Jul-09 01:33N 01°16' E 103°49'0 0.0
2014-Jul-09 00:33N 01°16' E 103°49'2 1.6
2014-Jul-08 23:33N 01°15' E 103°48'2 2.1
2014-Jul-08 22:33N 01°13' E 103°48'  
2014-Jul-04 10:33S 08°45' E 115°16'3 2.4
2014-Jul-04 09:22S 08°45' E 115°13'0 0.0
2014-Jul-04 08:25S 08°45' E 115°13'0 0.0
2014-Jul-04 07:25S 08°45' E 115°13'0 0.0
2014-Jul-04 06:25S 08°45' E 115°13'0 0.0
2014-Jul-04 05:28S 08°45' E 115°13'0 0.0
2014-Jul-04 04:25S 08°45' E 115°13'0 0.0
2014-Jul-04 03:28S 08°45' E 115°13'0 0.0
2014-Jul-04 02:28S 08°45' E 115°13'3 5.7
2014-Jul-04 02:00S 08°42' E 115°12'3 5.7 130 / 181016.010.8 27.0
2014-Jul-04 01:31S 08°45' E 115°13'0 0.0
2014-Jul-04 00:31S 08°45' E 115°13'2 1.6
2014-Jul-03 23:33S 08°45' E 115°14'1010.0
2014-Jul-03 22:33S 08°49' E 115°23'24512.5
2014-Jul-03 03:00S 08°30' E 119°30'   230 / 71016.010.8 27.0
2014-Jun-30 11:33S 12°15' E 130°17'1313.1
2014-Jun-30 10:33S 12°17' E 130°31'1212.0
2014-Jun-30 09:33S 12°20' E 130°43'1110.9
2014-Jun-30 08:33S 12°28' E 130°50'1 0.9
2014-Jun-30 07:31S 12°28' E 130°51'0 0.0
2014-Jun-30 06:31S 12°28' E 130°51'0 0.0
2014-Jun-30 05:19S 12°28' E 130°51'0 0.0
2014-Jun-30 04:31S 12°28' E 130°51'0 0.0
2014-Jun-30 03:31S 12°28' E 130°51'0 0.0
2014-Jun-30 02:19S 12°28' E 130°51'515.6
2014-Jun-30 02:00S 12°24' E 130°48'5 8.9 130 / 181018.010.8 24.0
2014-Jun-30 01:25S 12°28' E 130°51'0 0.0
2014-Jun-30 00:25S 12°28' E 130°51'0 0.0
2014-Jun-29 23:25S 12°28' E 130°51'0 0.0
2014-Jun-29 22:29S 12°28' E 130°51'6 6.1
2014-Jun-29 21:33S 12°25' E 130°46'1010.1
2014-Jun-29 20:33S 12°15' E 130°45'9 9.3
2014-Jun-29 19:33S 12°08' E 130°52'9 8.5
2014-Jun-29 18:32S 12°04' E 130°59'9 9.5
2014-Jun-29 17:33S 12°05' E 131°09'11 9.8
2014-Jun-29 16:26S 11°58' E 131°17'910.1
2014-Jun-29 15:31S 11°52' E 131°24'9 9.8
2014-Jun-29 14:33S 11°50' E 131°33'24 7.9
2014-Jun-29 11:33S 11°27' E 131°40'  

Dump ship's entire track history